sensor_id;sensor_type;location;lat;lon;timestamp;P1;durP1;ratioP1;P2;durP2;ratioP2
20042;SDS011;10182;52.896;6.496;2023-06-04T00:00:39;3.90;;;3.10;;
20042;SDS011;10182;52.896;6.496;2023-06-04T00:05:42;6.10;;;4.03;;
20042;SDS011;10182;52.896;6.496;2023-06-04T00:10:43;8.03;;;3.30;;
20042;SDS011;10182;52.896;6.496;2023-06-04T00:15:45;6.00;;;3.27;;
20042;SDS011;10182;52.896;6.496;2023-06-04T00:20:48;3.27;;;2.93;;
20042;SDS011;10182;52.896;6.496;2023-06-04T00:25:50;4.67;;;3.37;;
20042;SDS011;10182;52.896;6.496;2023-06-04T00:30:52;7.43;;;3.43;;
20042;SDS011;10182;52.896;6.496;2023-06-04T00:35:55;5.20;;;3.27;;
20042;SDS011;10182;52.896;6.496;2023-06-04T00:40:56;5.63;;;3.70;;
20042;SDS011;10182;52.896;6.496;2023-06-04T00:45:58;5.37;;;3.57;;
20042;SDS011;10182;52.896;6.496;2023-06-04T00:51:02;4.27;;;3.83;;
20042;SDS011;10182;52.896;6.496;2023-06-04T00:56:04;5.03;;;3.87;;
20042;SDS011;10182;52.896;6.496;2023-06-04T01:01:07;7.87;;;4.43;;
20042;SDS011;10182;52.896;6.496;2023-06-04T01:06:17;5.90;;;4.50;;
20042;SDS011;10182;52.896;6.496;2023-06-04T01:11:32;6.27;;;4.67;;
20042;SDS011;10182;52.896;6.496;2023-06-04T01:16:37;9.10;;;4.53;;
20042;SDS011;10182;52.896;6.496;2023-06-04T01:21:46;7.50;;;5.03;;
20042;SDS011;10182;52.896;6.496;2023-06-04T01:26:51;9.43;;;5.30;;
20042;SDS011;10182;52.896;6.496;2023-06-04T01:31:56;10.43;;;5.30;;
20042;SDS011;10182;52.896;6.496;2023-06-04T01:37:00;7.80;;;4.80;;
20042;SDS011;10182;52.896;6.496;2023-06-04T01:42:02;11.77;;;5.10;;
20042;SDS011;10182;52.896;6.496;2023-06-04T01:47:04;11.20;;;4.90;;
20042;SDS011;10182;52.896;6.496;2023-06-04T01:52:07;10.70;;;5.40;;
20042;SDS011;10182;52.896;6.496;2023-06-04T01:57:10;11.37;;;5.77;;
20042;SDS011;10182;52.896;6.496;2023-06-04T02:02:12;8.00;;;5.63;;
20042;SDS011;10182;52.896;6.496;2023-06-04T02:07:16;12.17;;;5.33;;
20042;SDS011;10182;52.896;6.496;2023-06-04T02:12:20;12.77;;;5.57;;
20042;SDS011;10182;52.896;6.496;2023-06-04T02:17:22;8.73;;;5.80;;
20042;SDS011;10182;52.896;6.496;2023-06-04T02:22:25;10.73;;;5.70;;
20042;SDS011;10182;52.896;6.496;2023-06-04T02:27:27;12.73;;;5.70;;
20042;SDS011;10182;52.896;6.496;2023-06-04T02:32:29;13.40;;;5.57;;
20042;SDS011;10182;52.896;6.496;2023-06-04T02:37:32;8.57;;;5.63;;
20042;SDS011;10182;52.896;6.496;2023-06-04T02:42:33;11.17;;;6.23;;
20042;SDS011;10182;52.896;6.496;2023-06-04T02:47:35;9.87;;;5.97;;
20042;SDS011;10182;52.896;6.496;2023-06-04T02:52:38;12.13;;;6.23;;
20042;SDS011;10182;52.896;6.496;2023-06-04T02:57:40;10.07;;;6.37;;
20042;SDS011;10182;52.896;6.496;2023-06-04T03:02:44;9.00;;;6.13;;
20042;SDS011;10182;52.896;6.496;2023-06-04T03:07:48;14.67;;;7.43;;
20042;SDS011;10182;52.896;6.496;2023-06-04T03:12:50;12.47;;;7.43;;
20042;SDS011;10182;52.896;6.496;2023-06-04T03:17:52;14.40;;;7.87;;
20042;SDS011;10182;52.896;6.496;2023-06-04T03:22:55;13.60;;;7.90;;
20042;SDS011;10182;52.896;6.496;2023-06-04T03:27:57;16.20;;;8.83;;
20042;SDS011;10182;52.896;6.496;2023-06-04T03:32:59;15.47;;;8.17;;
20042;SDS011;10182;52.896;6.496;2023-06-04T03:38:03;13.63;;;7.60;;
20042;SDS011;10182;52.896;6.496;2023-06-04T03:43:05;16.77;;;8.23;;
20042;SDS011;10182;52.896;6.496;2023-06-04T03:48:07;15.67;;;9.50;;
20042;SDS011;10182;52.896;6.496;2023-06-04T03:53:10;14.23;;;8.23;;
20042;SDS011;10182;52.896;6.496;2023-06-04T03:58:11;17.17;;;9.30;;
20042;SDS011;10182;52.896;6.496;2023-06-04T04:03:14;14.03;;;8.97;;
20042;SDS011;10182;52.896;6.496;2023-06-04T04:08:17;16.53;;;7.97;;
20042;SDS011;10182;52.896;6.496;2023-06-04T04:13:21;12.83;;;6.97;;
20042;SDS011;10182;52.896;6.496;2023-06-04T04:18:22;10.17;;;6.90;;
20042;SDS011;10182;52.896;6.496;2023-06-04T04:23:26;11.90;;;8.00;;
20042;SDS011;10182;52.896;6.496;2023-06-04T04:28:28;14.37;;;8.13;;
20042;SDS011;10182;52.896;6.496;2023-06-04T04:33:30;17.17;;;8.83;;
20042;SDS011;10182;52.896;6.496;2023-06-04T04:38:38;13.73;;;7.60;;
20042;SDS011;10182;52.896;6.496;2023-06-04T04:43:40;13.23;;;7.37;;
20042;SDS011;10182;52.896;6.496;2023-06-04T04:48:41;12.93;;;7.60;;
20042;SDS011;10182;52.896;6.496;2023-06-04T04:53:44;15.57;;;8.03;;
20042;SDS011;10182;52.896;6.496;2023-06-04T04:58:46;11.47;;;7.97;;
20042;SDS011;10182;52.896;6.496;2023-06-04T05:03:48;12.57;;;7.77;;
20042;SDS011;10182;52.896;6.496;2023-06-04T05:08:51;12.43;;;7.30;;
20042;SDS011;10182;52.896;6.496;2023-06-04T05:13:53;14.00;;;7.53;;
20042;SDS011;10182;52.896;6.496;2023-06-04T05:18:55;10.70;;;7.17;;
20042;SDS011;10182;52.896;6.496;2023-06-04T05:23:59;15.50;;;8.20;;
20042;SDS011;10182;52.896;6.496;2023-06-04T05:29:00;19.83;;;10.67;;
20042;SDS011;10182;52.896;6.496;2023-06-04T05:34:04;14.67;;;10.07;;
20042;SDS011;10182;52.896;6.496;2023-06-04T05:39:07;14.47;;;10.43;;
20042;SDS011;10182;52.896;6.496;2023-06-04T05:44:09;14.87;;;8.53;;
20042;SDS011;10182;52.896;6.496;2023-06-04T05:49:11;12.60;;;9.23;;
20042;SDS011;10182;52.896;6.496;2023-06-04T05:54:14;12.30;;;8.13;;
20042;SDS011;10182;52.896;6.496;2023-06-04T05:59:16;16.53;;;8.60;;
20042;SDS011;10182;52.896;6.496;2023-06-04T06:04:17;18.27;;;7.93;;
20042;SDS011;10182;52.896;6.496;2023-06-04T06:09:20;11.97;;;7.73;;
20042;SDS011;10182;52.896;6.496;2023-06-04T06:14:22;11.37;;;6.50;;
20042;SDS011;10182;52.896;6.496;2023-06-04T06:19:23;12.27;;;8.13;;
20042;SDS011;10182;52.896;6.496;2023-06-04T06:24:27;15.87;;;7.37;;
20042;SDS011;10182;52.896;6.496;2023-06-04T06:29:29;11.90;;;7.00;;
20042;SDS011;10182;52.896;6.496;2023-06-04T06:34:31;18.87;;;7.27;;
20042;SDS011;10182;52.896;6.496;2023-06-04T06:39:34;10.33;;;6.30;;
20042;SDS011;10182;52.896;6.496;2023-06-04T06:44:36;11.53;;;5.60;;
20042;SDS011;10182;52.896;6.496;2023-06-04T06:49:37;13.57;;;5.67;;
20042;SDS011;10182;52.896;6.496;2023-06-04T06:54:40;11.73;;;4.53;;
20042;SDS011;10182;52.896;6.496;2023-06-04T06:59:42;10.03;;;5.10;;
20042;SDS011;10182;52.896;6.496;2023-06-04T07:04:44;10.47;;;5.07;;
20042;SDS011;10182;52.896;6.496;2023-06-04T07:09:46;9.77;;;4.87;;
20042;SDS011;10182;52.896;6.496;2023-06-04T07:14:48;12.20;;;5.60;;
20042;SDS011;10182;52.896;6.496;2023-06-04T07:19:50;8.97;;;5.10;;
20042;SDS011;10182;52.896;6.496;2023-06-04T07:24:53;7.70;;;4.90;;
20042;SDS011;10182;52.896;6.496;2023-06-04T07:29:55;10.70;;;5.83;;
20042;SDS011;10182;52.896;6.496;2023-06-04T07:34:56;10.43;;;5.10;;
20042;SDS011;10182;52.896;6.496;2023-06-04T07:39:59;8.90;;;4.60;;
20042;SDS011;10182;52.896;6.496;2023-06-04T07:45:01;9.27;;;4.33;;
20042;SDS011;10182;52.896;6.496;2023-06-04T07:50:03;8.17;;;3.27;;
20042;SDS011;10182;52.896;6.496;2023-06-04T07:55:07;10.73;;;3.40;;
20042;SDS011;10182;52.896;6.496;2023-06-04T08:00:10;6.47;;;2.67;;
20042;SDS011;10182;52.896;6.496;2023-06-04T08:05:12;6.07;;;2.47;;
20042;SDS011;10182;52.896;6.496;2023-06-04T08:10:16;7.33;;;2.50;;
20042;SDS011;10182;52.896;6.496;2023-06-04T08:15:18;5.63;;;2.80;;
20042;SDS011;10182;52.896;6.496;2023-06-04T08:20:19;5.37;;;2.60;;
20042;SDS011;10182;52.896;6.496;2023-06-04T08:25:23;4.70;;;1.87;;
20042;SDS011;10182;52.896;6.496;2023-06-04T08:30:25;7.27;;;2.27;;
20042;SDS011;10182;52.896;6.496;2023-06-04T08:35:27;4.97;;;2.40;;
20042;SDS011;10182;52.896;6.496;2023-06-04T08:40:30;4.93;;;2.40;;
20042;SDS011;10182;52.896;6.496;2023-06-04T08:45:32;5.90;;;2.13;;
20042;SDS011;10182;52.896;6.496;2023-06-04T08:50:39;7.43;;;1.93;;
20042;SDS011;10182;52.896;6.496;2023-06-04T08:55:50;6.17;;;2.23;;
20042;SDS011;10182;52.896;6.496;2023-06-04T09:00:54;3.90;;;1.60;;
20042;SDS011;10182;52.896;6.496;2023-06-04T09:05:56;4.40;;;1.60;;
20042;SDS011;10182;52.896;6.496;2023-06-04T09:11:00;4.47;;;1.87;;
20042;SDS011;10182;52.896;6.496;2023-06-04T09:16:06;3.40;;;1.60;;
20042;SDS011;10182;52.896;6.496;2023-06-04T09:21:08;4.73;;;1.80;;
20042;SDS011;10182;52.896;6.496;2023-06-04T09:26:11;4.53;;;1.77;;
20042;SDS011;10182;52.896;6.496;2023-06-04T09:31:13;3.33;;;1.63;;
20042;SDS011;10182;52.896;6.496;2023-06-04T09:36:16;5.97;;;2.07;;
20042;SDS011;10182;52.896;6.496;2023-06-04T09:41:20;3.17;;;1.70;;
20042;SDS011;10182;52.896;6.496;2023-06-04T09:46:22;3.03;;;1.63;;
20042;SDS011;10182;52.896;6.496;2023-06-04T09:51:24;5.90;;;1.40;;
20042;SDS011;10182;52.896;6.496;2023-06-04T09:56:28;3.37;;;1.13;;
20042;SDS011;10182;52.896;6.496;2023-06-04T10:01:30;2.57;;;1.30;;
20042;SDS011;10182;52.896;6.496;2023-06-04T10:06:32;3.27;;;1.43;;
20042;SDS011;10182;52.896;6.496;2023-06-04T10:11:37;1.47;;;1.30;;
20042;SDS011;10182;52.896;6.496;2023-06-04T10:16:42;3.13;;;1.40;;
20042;SDS011;10182;52.896;6.496;2023-06-04T10:21:44;4.63;;;1.60;;
20042;SDS011;10182;52.896;6.496;2023-06-04T10:26:48;4.07;;;1.63;;
20042;SDS011;10182;52.896;6.496;2023-06-04T10:31:53;2.47;;;1.60;;
20042;SDS011;10182;52.896;6.496;2023-06-04T10:36:55;3.13;;;1.30;;
20042;SDS011;10182;52.896;6.496;2023-06-04T10:41:59;2.77;;;1.57;;
20042;SDS011;10182;52.896;6.496;2023-06-04T10:47:02;3.23;;;1.70;;
20042;SDS011;10182;52.896;6.496;2023-06-04T10:52:09;3.23;;;1.40;;
20042;SDS011;10182;52.896;6.496;2023-06-04T10:57:13;2.50;;;1.50;;
20042;SDS011;10182;52.896;6.496;2023-06-04T11:02:15;3.40;;;1.73;;
20042;SDS011;10182;52.896;6.496;2023-06-04T11:07:17;2.27;;;1.43;;
20042;SDS011;10182;52.896;6.496;2023-06-04T11:12:20;4.07;;;1.93;;
20042;SDS011;10182;52.896;6.496;2023-06-04T11:17:22;6.33;;;1.87;;
20042;SDS011;10182;52.896;6.496;2023-06-04T11:22:24;3.43;;;1.60;;
20042;SDS011;10182;52.896;6.496;2023-06-04T11:27:27;3.53;;;1.67;;
20042;SDS011;10182;52.896;6.496;2023-06-04T11:32:29;3.20;;;1.60;;
20042;SDS011;10182;52.896;6.496;2023-06-04T11:37:30;4.93;;;1.40;;
20042;SDS011;10182;52.896;6.496;2023-06-04T11:42:39;2.87;;;1.43;;
20042;SDS011;10182;52.896;6.496;2023-06-04T11:47:44;2.67;;;1.43;;
20042;SDS011;10182;52.896;6.496;2023-06-04T11:52:46;2.53;;;1.33;;
20042;SDS011;10182;52.896;6.496;2023-06-04T11:57:50;5.17;;;1.60;;
20042;SDS011;10182;52.896;6.496;2023-06-04T12:02:53;3.23;;;1.73;;
20042;SDS011;10182;52.896;6.496;2023-06-04T12:08:03;2.70;;;1.20;;
20042;SDS011;10182;52.896;6.496;2023-06-04T12:13:07;3.27;;;1.50;;
20042;SDS011;10182;52.896;6.496;2023-06-04T12:18:09;4.50;;;1.57;;
20042;SDS011;10182;52.896;6.496;2023-06-04T12:23:19;2.77;;;1.50;;
20042;SDS011;10182;52.896;6.496;2023-06-04T12:28:22;6.97;;;1.60;;
20042;SDS011;10182;52.896;6.496;2023-06-04T12:33:24;4.53;;;1.57;;
20042;SDS011;10182;52.896;6.496;2023-06-04T12:38:25;4.97;;;1.50;;
20042;SDS011;10182;52.896;6.496;2023-06-04T12:43:29;5.47;;;1.73;;
20042;SDS011;10182;52.896;6.496;2023-06-04T12:48:33;2.40;;;1.60;;
20042;SDS011;10182;52.896;6.496;2023-06-04T12:53:35;4.83;;;1.80;;
20042;SDS011;10182;52.896;6.496;2023-06-04T12:58:40;3.37;;;1.70;;
20042;SDS011;10182;52.896;6.496;2023-06-04T13:03:42;5.43;;;2.03;;
20042;SDS011;10182;52.896;6.496;2023-06-04T13:08:52;5.27;;;2.20;;
20042;SDS011;10182;52.896;6.496;2023-06-04T13:13:55;2.23;;;1.50;;
20042;SDS011;10182;52.896;6.496;2023-06-04T13:18:57;4.67;;;1.93;;
20042;SDS011;10182;52.896;6.496;2023-06-04T13:23:58;5.10;;;1.73;;
20042;SDS011;10182;52.896;6.496;2023-06-04T13:29:01;3.67;;;1.87;;
20042;SDS011;10182;52.896;6.496;2023-06-04T13:34:03;5.07;;;1.60;;
20042;SDS011;10182;52.896;6.496;2023-06-04T13:39:05;3.77;;;1.80;;
20042;SDS011;10182;52.896;6.496;2023-06-04T13:44:08;3.90;;;1.70;;
20042;SDS011;10182;52.896;6.496;2023-06-04T13:49:10;5.27;;;1.70;;
20042;SDS011;10182;52.896;6.496;2023-06-04T13:54:11;2.90;;;1.57;;
20042;SDS011;10182;52.896;6.496;2023-06-04T13:59:14;1.83;;;1.43;;
20042;SDS011;10182;52.896;6.496;2023-06-04T14:04:16;4.73;;;2.00;;
20042;SDS011;10182;52.896;6.496;2023-06-04T14:09:19;4.73;;;2.30;;
20042;SDS011;10182;52.896;6.496;2023-06-04T14:14:22;2.37;;;1.30;;
20042;SDS011;10182;52.896;6.496;2023-06-04T14:19:24;3.37;;;1.80;;
20042;SDS011;10182;52.896;6.496;2023-06-04T14:24:25;4.23;;;2.27;;
20042;SDS011;10182;52.896;6.496;2023-06-04T14:29:28;3.00;;;2.00;;
20042;SDS011;10182;52.896;6.496;2023-06-04T14:34:30;2.50;;;1.53;;
20042;SDS011;10182;52.896;6.496;2023-06-04T14:39:33;3.97;;;2.07;;
20042;SDS011;10182;52.896;6.496;2023-06-04T14:44:37;3.80;;;1.50;;
20042;SDS011;10182;52.896;6.496;2023-06-04T14:49:39;3.97;;;1.90;;
20042;SDS011;10182;52.896;6.496;2023-06-04T14:54:41;3.13;;;1.90;;
20042;SDS011;10182;52.896;6.496;2023-06-04T14:59:48;5.17;;;1.77;;
20042;SDS011;10182;52.896;6.496;2023-06-04T15:04:50;4.30;;;1.53;;
20042;SDS011;10182;52.896;6.496;2023-06-04T15:09:51;2.60;;;1.90;;
20042;SDS011;10182;52.896;6.496;2023-06-04T15:14:54;3.70;;;1.80;;
20042;SDS011;10182;52.896;6.496;2023-06-04T15:19:56;4.03;;;1.73;;
20042;SDS011;10182;52.896;6.496;2023-06-04T15:24:58;3.20;;;1.60;;
20042;SDS011;10182;52.896;6.496;2023-06-04T15:30:01;3.17;;;1.60;;
20042;SDS011;10182;52.896;6.496;2023-06-04T15:35:04;4.93;;;1.63;;
20042;SDS011;10182;52.896;6.496;2023-06-04T15:40:06;5.13;;;1.97;;
20042;SDS011;10182;52.896;6.496;2023-06-04T15:45:12;4.37;;;1.97;;
20042;SDS011;10182;52.896;6.496;2023-06-04T15:50:13;4.13;;;1.90;;
20042;SDS011;10182;52.896;6.496;2023-06-04T15:55:15;6.60;;;2.43;;
20042;SDS011;10182;52.896;6.496;2023-06-04T16:00:18;6.33;;;2.00;;
20042;SDS011;10182;52.896;6.496;2023-06-04T16:05:20;3.23;;;1.63;;
20042;SDS011;10182;52.896;6.496;2023-06-04T16:10:22;3.07;;;1.70;;
20042;SDS011;10182;52.896;6.496;2023-06-04T16:15:25;4.20;;;1.97;;
20042;SDS011;10182;52.896;6.496;2023-06-04T16:20:27;6.73;;;1.97;;
20042;SDS011;10182;52.896;6.496;2023-06-04T16:25:28;4.67;;;1.60;;
20042;SDS011;10182;52.896;6.496;2023-06-04T16:30:31;4.97;;;2.03;;
20042;SDS011;10182;52.896;6.496;2023-06-04T16:35:33;4.57;;;1.73;;
20042;SDS011;10182;52.896;6.496;2023-06-04T16:40:35;4.73;;;1.93;;
20042;SDS011;10182;52.896;6.496;2023-06-04T16:50:43;5.30;;;1.70;;
20042;SDS011;10182;52.896;6.496;2023-06-04T16:55:45;3.97;;;1.83;;
20042;SDS011;10182;52.896;6.496;2023-06-04T17:00:48;2.77;;;2.10;;
20042;SDS011;10182;52.896;6.496;2023-06-04T17:05:50;3.97;;;2.00;;
20042;SDS011;10182;52.896;6.496;2023-06-04T17:10:52;5.10;;;2.27;;
20042;SDS011;10182;52.896;6.496;2023-06-04T17:15:55;6.53;;;2.63;;
20042;SDS011;10182;52.896;6.496;2023-06-04T17:20:56;3.40;;;2.20;;
20042;SDS011;10182;52.896;6.496;2023-06-04T17:25:58;3.90;;;2.10;;
20042;SDS011;10182;52.896;6.496;2023-06-04T17:31:01;3.60;;;2.20;;
20042;SDS011;10182;52.896;6.496;2023-06-04T17:36:03;5.20;;;2.80;;
20042;SDS011;10182;52.896;6.496;2023-06-04T17:41:05;11.43;;;2.87;;
20042;SDS011;10182;52.896;6.496;2023-06-04T17:46:08;8.37;;;2.57;;
20042;SDS011;10182;52.896;6.496;2023-06-04T17:51:10;5.70;;;2.23;;
20042;SDS011;10182;52.896;6.496;2023-06-04T17:56:11;5.00;;;2.37;;
20042;SDS011;10182;52.896;6.496;2023-06-04T18:01:14;2.90;;;2.30;;
20042;SDS011;10182;52.896;6.496;2023-06-04T18:06:17;3.53;;;2.70;;
20042;SDS011;10182;52.896;6.496;2023-06-04T18:11:19;5.90;;;2.43;;
20042;SDS011;10182;52.896;6.496;2023-06-04T18:16:23;4.83;;;2.30;;
20042;SDS011;10182;52.896;6.496;2023-06-04T18:21:25;3.93;;;2.53;;
20042;SDS011;10182;52.896;6.496;2023-06-04T18:26:26;4.20;;;2.50;;
20042;SDS011;10182;52.896;6.496;2023-06-04T18:31:30;6.73;;;2.63;;
20042;SDS011;10182;52.896;6.496;2023-06-04T18:36:31;6.47;;;2.80;;
20042;SDS011;10182;52.896;6.496;2023-06-04T18:41:35;3.67;;;2.10;;
20042;SDS011;10182;52.896;6.496;2023-06-04T18:46:38;2.47;;;1.97;;
20042;SDS011;10182;52.896;6.496;2023-06-04T18:51:41;5.17;;;3.30;;
20042;SDS011;10182;52.896;6.496;2023-06-04T18:56:43;3.80;;;2.37;;
20042;SDS011;10182;52.896;6.496;2023-06-04T19:01:46;6.90;;;3.07;;
20042;SDS011;10182;52.896;6.496;2023-06-04T19:06:48;6.73;;;2.97;;
20042;SDS011;10182;52.896;6.496;2023-06-04T19:11:49;6.13;;;2.73;;
20042;SDS011;10182;52.896;6.496;2023-06-04T19:16:52;3.73;;;2.87;;
20042;SDS011;10182;52.896;6.496;2023-06-04T19:21:54;4.50;;;2.33;;
20042;SDS011;10182;52.896;6.496;2023-06-04T19:26:58;3.60;;;2.83;;
20042;SDS011;10182;52.896;6.496;2023-06-04T19:32:01;4.07;;;2.90;;
20042;SDS011;10182;52.896;6.496;2023-06-04T19:37:03;3.87;;;3.30;;
20042;SDS011;10182;52.896;6.496;2023-06-04T19:42:05;6.73;;;3.60;;
20042;SDS011;10182;52.896;6.496;2023-06-04T19:47:08;5.50;;;3.00;;
20042;SDS011;10182;52.896;6.496;2023-06-04T19:52:10;4.10;;;3.23;;
20042;SDS011;10182;52.896;6.496;2023-06-04T19:57:11;4.77;;;3.40;;
20042;SDS011;10182;52.896;6.496;2023-06-04T20:02:16;5.70;;;3.57;;
20042;SDS011;10182;52.896;6.496;2023-06-04T20:07:18;4.70;;;3.20;;
20042;SDS011;10182;52.896;6.496;2023-06-04T20:12:20;5.77;;;3.50;;
20042;SDS011;10182;52.896;6.496;2023-06-04T20:17:23;7.03;;;3.90;;
20042;SDS011;10182;52.896;6.496;2023-06-04T20:22:24;5.90;;;3.93;;
20042;SDS011;10182;52.896;6.496;2023-06-04T20:27:26;7.30;;;4.37;;
20042;SDS011;10182;52.896;6.496;2023-06-04T20:32:29;6.67;;;3.73;;
20042;SDS011;10182;52.896;6.496;2023-06-04T20:37:31;6.07;;;4.40;;
20042;SDS011;10182;52.896;6.496;2023-06-04T20:42:35;6.37;;;4.20;;
20042;SDS011;10182;52.896;6.496;2023-06-04T20:47:38;7.97;;;4.90;;
20042;SDS011;10182;52.896;6.496;2023-06-04T20:52:40;8.43;;;4.60;;
20042;SDS011;10182;52.896;6.496;2023-06-04T20:57:42;5.93;;;5.07;;
20042;SDS011;10182;52.896;6.496;2023-06-04T21:02:45;6.93;;;5.00;;
20042;SDS011;10182;52.896;6.496;2023-06-04T21:07:46;8.80;;;4.97;;
20042;SDS011;10182;52.896;6.496;2023-06-04T21:12:48;6.77;;;5.03;;
20042;SDS011;10182;52.896;6.496;2023-06-04T21:17:51;8.00;;;5.53;;
20042;SDS011;10182;52.896;6.496;2023-06-04T21:22:53;8.70;;;5.73;;
20042;SDS011;10182;52.896;6.496;2023-06-04T21:27:55;8.60;;;5.47;;
20042;SDS011;10182;52.896;6.496;2023-06-04T21:32:58;6.67;;;5.53;;
20042;SDS011;10182;52.896;6.496;2023-06-04T21:38:00;6.83;;;6.10;;
20042;SDS011;10182;52.896;6.496;2023-06-04T21:43:02;7.07;;;5.23;;
20042;SDS011;10182;52.896;6.496;2023-06-04T21:48:05;8.30;;;6.50;;
20042;SDS011;10182;52.896;6.496;2023-06-04T21:53:06;9.47;;;6.13;;
20042;SDS011;10182;52.896;6.496;2023-06-04T21:58:08;9.43;;;6.17;;
20042;SDS011;10182;52.896;6.496;2023-06-04T22:03:11;7.73;;;6.00;;
20042;SDS011;10182;52.896;6.496;2023-06-04T22:08:13;7.83;;;6.43;;
20042;SDS011;10182;52.896;6.496;2023-06-04T22:13:15;8.47;;;6.80;;
20042;SDS011;10182;52.896;6.496;2023-06-04T22:18:18;9.33;;;6.20;;
20042;SDS011;10182;52.896;6.496;2023-06-04T22:23:20;7.93;;;6.63;;
20042;SDS011;10182;52.896;6.496;2023-06-04T22:28:22;9.77;;;6.23;;
20042;SDS011;10182;52.896;6.496;2023-06-04T22:33:26;9.23;;;7.07;;
20042;SDS011;10182;52.896;6.496;2023-06-04T22:38:29;9.53;;;7.90;;
20042;SDS011;10182;52.896;6.496;2023-06-04T22:43:31;9.47;;;7.60;;
20042;SDS011;10182;52.896;6.496;2023-06-04T22:48:34;12.87;;;7.97;;
20042;SDS011;10182;52.896;6.496;2023-06-04T22:53:35;8.83;;;7.47;;
20042;SDS011;10182;52.896;6.496;2023-06-04T22:58:37;10.00;;;7.20;;
20042;SDS011;10182;52.896;6.496;2023-06-04T23:03:40;13.27;;;7.43;;
20042;SDS011;10182;52.896;6.496;2023-06-04T23:08:41;9.83;;;7.57;;
20042;SDS011;10182;52.896;6.496;2023-06-04T23:13:44;11.57;;;8.03;;
20042;SDS011;10182;52.896;6.496;2023-06-04T23:18:47;10.23;;;8.93;;
20042;SDS011;10182;52.896;6.496;2023-06-04T23:23:49;12.63;;;8.37;;
20042;SDS011;10182;52.896;6.496;2023-06-04T23:28:50;9.30;;;7.70;;
20042;SDS011;10182;52.896;6.496;2023-06-04T23:33:53;11.60;;;8.77;;
20042;SDS011;10182;52.896;6.496;2023-06-04T23:38:56;12.37;;;9.07;;
20042;SDS011;10182;52.896;6.496;2023-06-04T23:43:58;10.20;;;8.63;;
20042;SDS011;10182;52.896;6.496;2023-06-04T23:49:01;10.83;;;8.03;;
20042;SDS011;10182;52.896;6.496;2023-06-04T23:54:03;9.57;;;8.23;;
20042;SDS011;10182;52.896;6.496;2023-06-04T23:59:05;11.63;;;9.27;;
